createdAt,value
2022-08-17T00:01:40.010Z,24.56
2022-08-17T00:04:19.884Z,24.59
2022-08-17T00:06:49.217Z,24.52
2022-08-17T00:09:19.047Z,24.48
2022-08-17T00:12:03.894Z,24.46
2022-08-17T00:14:34.128Z,24.45
2022-08-17T00:17:00.854Z,24.43
2022-08-17T00:19:27.455Z,24.45
2022-08-17T00:22:32.563Z,24.44
2022-08-17T00:24:44.563Z,24.41
2022-08-17T00:27:11.266Z,24.40
2022-08-17T00:29:37.863Z,24.42
2022-08-17T00:33:15.410Z,24.38
2022-08-17T00:34:51.242Z,24.32
2022-08-17T00:37:18.567Z,24.32
2022-08-17T00:39:45.166Z,24.27
2022-08-17T00:42:17.405Z,24.24
2022-08-17T00:44:44.345Z,24.23
2022-08-17T00:47:10.907Z,24.11
2022-08-17T00:49:37.562Z,24.08
2022-08-17T00:52:15.533Z,24.04
2022-08-17T00:54:45.009Z,24.06
2022-08-17T00:57:17.489Z,24.03
2022-08-17T00:59:56.032Z,24.04
2022-08-17T01:02:42.034Z,23.99
2022-08-17T01:05:15.043Z,23.96
2022-08-17T01:07:43.133Z,23.89
2022-08-17T01:11:00.251Z,23.92
2022-08-17T01:13:02.531Z,23.88
2022-08-17T01:15:36.496Z,23.86
2022-08-17T01:18:08.148Z,23.79
2022-08-17T01:20:48.346Z,23.82
2022-08-17T01:23:20.427Z,23.85
2022-08-17T01:25:55.281Z,23.83
2022-08-17T01:28:52.799Z,23.83
2022-08-17T01:31:15.236Z,23.80
2022-08-17T01:33:41.960Z,23.77
2022-08-17T01:36:09.331Z,23.77
2022-08-17T01:38:37.423Z,23.74
2022-08-17T01:41:11.254Z,23.65
2022-08-17T01:43:47.543Z,23.58
2022-08-17T01:46:23.072Z,23.51
2022-08-17T01:48:51.260Z,23.50
2022-08-17T01:51:18.124Z,23.53
2022-08-17T01:53:50.741Z,23.52
2022-08-17T01:56:21.577Z,23.45
2022-08-17T01:58:48.617Z,23.37
2022-08-17T02:01:18.028Z,23.35
2022-08-17T02:03:56.097Z,23.29
2022-08-17T02:06:47.038Z,23.26
2022-08-17T02:09:19.524Z,23.23
2022-08-17T02:11:50.034Z,23.19
2022-08-17T02:14:16.812Z,23.21
2022-08-17T02:16:43.700Z,23.17
2022-08-17T02:19:15.749Z,23.13
2022-08-17T02:21:45.896Z,23.07
2022-08-17T02:24:17.444Z,23.06
2022-08-17T02:27:04.581Z,23.04
2022-08-17T02:29:31.422Z,22.99
2022-08-17T02:31:58.652Z,23.00
2022-08-17T02:34:26.307Z,22.99
2022-08-17T02:36:53.488Z,22.97
2022-08-17T02:39:20.285Z,22.98
2022-08-17T02:41:46.935Z,22.94
2022-08-17T02:44:13.614Z,22.92
2022-08-17T02:47:00.721Z,22.83
2022-08-17T02:49:27.281Z,22.80
2022-08-17T02:51:53.843Z,22.82
2022-08-17T02:54:39.916Z,22.86
2022-08-17T02:57:07.390Z,22.91
2022-08-17T02:59:34.095Z,22.95
2022-08-17T03:02:03.455Z,22.94
2022-08-17T03:04:30.399Z,22.92
2022-08-17T03:06:56.997Z,22.87
2022-08-17T03:09:23.795Z,22.83
2022-08-17T03:11:53.078Z,22.79
2022-08-17T03:14:26.091Z,22.79
2022-08-17T03:16:53.061Z,22.78
2022-08-17T03:19:19.617Z,22.79
2022-08-17T03:21:46.165Z,22.80
2022-08-17T03:24:21.730Z,22.83
2022-08-17T03:26:55.466Z,22.82
2022-08-17T03:29:22.260Z,22.80
2022-08-17T03:31:50.028Z,22.70
2022-08-17T03:34:17.212Z,22.62
2022-08-17T03:36:43.933Z,22.62
2022-08-17T03:39:10.573Z,22.53
2022-08-17T03:41:39.041Z,22.47
2022-08-17T03:44:05.885Z,22.47
2022-08-17T03:46:51.121Z,22.51
2022-08-17T03:49:35.903Z,22.54
2022-08-17T03:52:20.777Z,22.54
2022-08-17T03:55:05.684Z,22.55
2022-08-17T03:57:32.544Z,22.54
2022-08-17T03:59:59.865Z,22.55
2022-08-17T04:02:34.264Z,22.52
2022-08-17T04:05:03.495Z,22.50
2022-08-17T04:07:31.499Z,22.47
2022-08-17T04:09:59.495Z,22.51
2022-08-17T04:12:31.259Z,22.43
2022-08-17T04:14:58.443Z,22.37
2022-08-17T04:17:29.419Z,22.41
2022-08-17T04:19:56.946Z,22.38
2022-08-17T04:22:32.537Z,22.41
2022-08-17T04:25:13.884Z,22.42
2022-08-17T04:27:40.518Z,22.36
2022-08-17T04:30:07.748Z,22.39
2022-08-17T04:33:19.132Z,22.33
2022-08-17T04:35:50.161Z,22.36
2022-08-17T04:38:20.078Z,22.42
2022-08-17T04:41:06.009Z,22.41
2022-08-17T04:43:39.932Z,22.39
2022-08-17T04:46:10.147Z,22.34
2022-08-17T04:48:39.787Z,22.31
2022-08-17T04:51:19.307Z,22.34
2022-08-17T04:53:53.193Z,22.42
2022-08-17T04:56:21.916Z,22.48
2022-08-17T04:58:51.418Z,22.55
2022-08-17T05:01:24.065Z,22.60
2022-08-17T05:03:53.301Z,22.63
2022-08-17T05:06:20.533Z,22.66
2022-08-17T05:08:47.881Z,22.69
2022-08-17T05:11:14.703Z,22.61
2022-08-17T05:13:41.365Z,22.56
2022-08-17T05:16:09.216Z,22.58
2022-08-17T05:18:37.316Z,22.56
2022-08-17T05:21:04.485Z,22.63
2022-08-17T05:23:35.008Z,22.69
2022-08-17T05:26:25.997Z,22.69
2022-08-17T05:28:58.445Z,22.67
2022-08-17T05:31:27.359Z,22.64
2022-08-17T05:33:53.958Z,22.66
2022-08-17T05:36:42.154Z,22.69
2022-08-17T05:39:07.686Z,22.75
2022-08-17T05:41:34.305Z,22.83
2022-08-17T05:44:00.901Z,22.92
2022-08-17T05:46:40.308Z,23.00
2022-08-17T05:49:08.143Z,23.06
2022-08-17T05:52:03.194Z,23.12
2022-08-17T05:54:39.568Z,23.22
2022-08-17T05:57:17.965Z,23.27
2022-08-17T06:00:14.281Z,23.33
2022-08-17T06:02:56.140Z,23.34
2022-08-17T06:05:51.483Z,23.37
2022-08-17T06:08:32.028Z,23.41
2022-08-17T06:11:27.971Z,23.56
2022-08-17T06:14:22.213Z,23.66
2022-08-17T06:16:56.788Z,23.62
2022-08-17T06:19:36.316Z,23.79
2022-08-17T06:22:06.058Z,23.93
2022-08-17T06:24:42.063Z,23.94
2022-08-17T06:27:21.153Z,24.11
2022-08-17T06:30:05.445Z,24.21
2022-08-17T06:32:32.232Z,24.32
2022-08-17T06:35:00.525Z,24.36
2022-08-17T06:38:04.674Z,24.44
2022-08-17T06:41:01.994Z,24.57
2022-08-17T06:43:40.434Z,24.71
2022-08-17T06:46:13.114Z,24.81
2022-08-17T06:49:08.019Z,24.97
2022-08-17T06:51:53.691Z,25.09
2022-08-17T06:55:02.011Z,25.16
2022-08-17T06:57:32.029Z,25.22
2022-08-17T07:00:04.352Z,25.22
2022-08-17T07:02:51.522Z,25.24
2022-08-17T07:05:28.107Z,25.28
2022-08-17T07:08:02.920Z,25.30
2022-08-17T07:10:36.509Z,25.29
2022-08-17T07:13:17.087Z,25.26
2022-08-17T07:15:45.506Z,25.22
2022-08-17T07:18:12.096Z,25.21
2022-08-17T07:20:43.808Z,25.17
2022-08-17T07:23:26.880Z,25.10
2022-08-17T07:25:53.470Z,25.10
2022-08-17T07:28:23.233Z,25.04
2022-08-17T07:30:54.633Z,25.09
2022-08-17T07:33:26.261Z,25.17
2022-08-17T07:35:58.236Z,25.21
2022-08-17T07:38:33.345Z,25.26
2022-08-17T07:41:07.105Z,25.29
2022-08-17T07:43:39.941Z,25.25
2022-08-17T07:46:46.372Z,25.26
2022-08-17T07:49:12.906Z,25.31
2022-08-17T07:51:42.581Z,25.30
2022-08-17T07:54:15.398Z,25.23
2022-08-17T07:56:42.168Z,25.22
2022-08-17T07:59:10.702Z,25.20
2022-08-17T08:01:41.888Z,25.20
2022-08-17T08:04:20.080Z,25.27
2022-08-17T08:06:59.634Z,25.36
2022-08-17T08:09:41.731Z,25.40
2022-08-17T08:15:14.044Z,25.49
2022-08-17T08:17:52.085Z,25.54
2022-08-17T08:20:50.957Z,25.57
2022-08-17T08:23:34.109Z,25.59
2022-08-17T08:26:03.560Z,25.59
2022-08-17T08:28:39.787Z,25.54
2022-08-17T08:31:09.673Z,25.50
2022-08-17T08:33:40.069Z,25.49
2022-08-17T08:37:14.453Z,25.49
2022-08-17T08:40:15.119Z,25.54
2022-08-17T08:43:04.001Z,25.58
2022-08-17T08:45:49.157Z,25.70
2022-08-17T08:48:22.932Z,25.93
2022-08-17T08:51:33.014Z,26.01
2022-08-17T08:54:16.572Z,26.05
2022-08-17T08:59:59.763Z,26.04
2022-08-17T09:03:04.197Z,26.12
2022-08-17T09:05:42.968Z,26.15
2022-08-17T09:08:21.869Z,26.14
2022-08-17T09:11:27.033Z,26.03
2022-08-17T09:13:57.541Z,25.90
2022-08-17T09:16:45.646Z,25.79
2022-08-17T09:19:19.509Z,25.71
2022-08-17T09:21:55.599Z,25.69
2022-08-17T09:24:32.176Z,25.61
2022-08-17T09:27:14.790Z,25.64
2022-08-17T09:30:00.248Z,25.69
2022-08-17T09:32:52.161Z,25.76
2022-08-17T09:35:24.202Z,25.79
2022-08-17T09:38:15.268Z,25.81
2022-08-17T09:41:03.760Z,25.84
2022-08-17T09:43:41.585Z,25.94
2022-08-17T09:46:18.281Z,25.93
2022-08-17T09:48:59.762Z,25.94
2022-08-17T09:51:35.283Z,25.95
2022-08-17T09:54:34.739Z,25.92
2022-08-17T09:57:11.925Z,25.86
2022-08-17T10:00:30.415Z,25.88
2022-08-17T10:03:19.885Z,25.84
2022-08-17T10:06:01.603Z,25.77
2022-08-17T10:08:52.312Z,25.72
2022-08-17T10:12:06.810Z,25.68
2022-08-17T10:14:43.970Z,25.59
2022-08-17T10:17:17.188Z,25.51
2022-08-17T10:19:58.659Z,25.41
2022-08-17T10:22:54.823Z,25.34
2022-08-17T10:25:55.026Z,25.30
2022-08-17T10:28:30.532Z,25.24
2022-08-17T10:31:32.981Z,25.18
2022-08-17T10:34:19.185Z,25.12
2022-08-17T10:36:58.229Z,25.03
2022-08-17T10:39:36.574Z,24.99
2022-08-17T10:42:35.275Z,24.98
2022-08-17T10:45:07.542Z,24.96
2022-08-17T10:47:56.062Z,24.90
2022-08-17T10:50:59.998Z,24.78
2022-08-17T10:53:32.500Z,24.77
2022-08-17T10:56:14.414Z,24.79
2022-08-17T10:58:57.898Z,24.71
2022-08-17T11:01:38.218Z,24.65
2022-08-17T11:04:21.396Z,24.60
2022-08-17T11:07:02.387Z,24.54
2022-08-17T11:09:58.487Z,24.45
2022-08-17T11:13:11.644Z,24.41
2022-08-17T11:15:44.110Z,24.33
2022-08-17T11:18:28.278Z,24.31
2022-08-17T11:20:57.975Z,24.32
2022-08-17T11:23:40.054Z,24.30
2022-08-17T11:26:26.317Z,24.27
2022-08-17T11:29:00.140Z,24.22
2022-08-17T11:31:40.285Z,24.17
2022-08-17T11:34:26.567Z,24.13
2022-08-17T11:37:31.881Z,23.95
2022-08-17T11:40:33.785Z,23.96
2022-08-17T11:43:28.521Z,24.04
2022-08-17T11:46:19.975Z,24.12
2022-08-17T11:49:27.035Z,24.22
2022-08-17T11:52:01.047Z,24.38
2022-08-17T11:54:33.776Z,24.60
2022-08-17T11:57:25.825Z,24.71
2022-08-17T12:00:11.359Z,24.82
2022-08-17T12:02:49.051Z,24.96
2022-08-17T12:05:19.438Z,25.12
2022-08-17T12:07:52.634Z,25.21
2022-08-17T12:10:30.383Z,25.27
2022-08-17T12:12:58.720Z,25.28
2022-08-17T12:15:42.738Z,25.56
2022-08-17T12:18:29.330Z,25.56
2022-08-17T12:21:12.250Z,25.07
2022-08-17T12:24:06.804Z,25.00
2022-08-17T12:26:35.923Z,25.06
2022-08-17T12:29:06.516Z,25.39
2022-08-17T12:31:44.346Z,25.66
2022-08-17T12:34:39.260Z,25.95
2022-08-17T12:37:18.700Z,25.86
2022-08-17T12:40:03.924Z,25.57
2022-08-17T12:42:37.584Z,25.50
2022-08-17T12:45:07.630Z,25.31
2022-08-17T12:47:37.502Z,25.10
2022-08-17T12:50:29.897Z,25.27
2022-08-17T12:53:01.091Z,25.35
2022-08-17T12:55:32.556Z,25.52
2022-08-17T12:58:01.899Z,25.83
2022-08-17T13:00:34.854Z,25.72
2022-08-17T13:03:15.794Z,26.01
2022-08-17T13:05:59.792Z,26.34
2022-08-17T13:08:50.476Z,26.83
2022-08-17T13:11:22.516Z,26.79
2022-08-17T13:13:52.002Z,26.95
2022-08-17T13:16:22.850Z,27.01
2022-08-17T13:18:55.609Z,26.63
2022-08-17T13:21:30.622Z,26.19
2022-08-17T13:24:07.820Z,25.93
2022-08-17T13:26:38.288Z,25.94
2022-08-17T13:29:23.641Z,25.99
2022-08-17T13:31:56.627Z,26.30
2022-08-17T13:35:03.727Z,26.08
2022-08-17T13:37:35.323Z,26.02
2022-08-17T13:40:25.001Z,26.10
2022-08-17T13:42:54.224Z,26.62
2022-08-17T13:45:39.603Z,26.70
2022-08-17T13:48:14.528Z,27.22
2022-08-17T13:50:50.067Z,27.04
2022-08-17T13:53:36.987Z,27.09
2022-08-17T13:56:37.428Z,27.11
2022-08-17T13:59:09.894Z,26.99
2022-08-17T14:01:42.798Z,26.63
2022-08-17T14:04:16.576Z,26.36
2022-08-17T14:07:20.381Z,26.34
2022-08-17T14:09:52.348Z,26.21
2022-08-17T14:12:22.291Z,26.21
2022-08-17T14:14:49.838Z,26.13
2022-08-17T14:17:16.566Z,26.20
2022-08-17T14:19:43.321Z,26.00
2022-08-17T14:22:18.888Z,26.12
2022-08-17T14:24:46.008Z,26.73
2022-08-17T14:27:12.670Z,27.00
2022-08-17T14:29:41.296Z,27.15
2022-08-17T14:32:26.825Z,27.06
2022-08-17T14:34:56.849Z,26.89
2022-08-17T14:37:28.630Z,26.40
2022-08-17T14:39:57.528Z,26.29
2022-08-17T14:42:27.826Z,26.30
2022-08-17T14:44:55.491Z,26.28
2022-08-17T14:47:22.894Z,26.64
2022-08-17T14:49:49.622Z,27.06
2022-08-17T14:52:22.025Z,27.05
2022-08-17T14:54:52.926Z,26.72
2022-08-17T14:57:33.179Z,26.50
2022-08-17T15:00:02.663Z,26.59
2022-08-17T15:02:31.037Z,26.73
2022-08-17T15:05:06.101Z,27.18
2022-08-17T15:07:32.884Z,26.89
2022-08-17T15:10:02.472Z,27.14
2022-08-17T15:12:33.641Z,27.18
2022-08-17T15:15:04.605Z,26.95
2022-08-17T15:17:44.617Z,26.52
2022-08-17T15:20:16.035Z,26.11
2022-08-17T15:22:44.648Z,26.12
2022-08-17T15:25:12.330Z,26.05
2022-08-17T15:27:39.118Z,25.96
2022-08-17T15:30:07.532Z,26.04
2022-08-17T15:32:38.685Z,26.07
2022-08-17T15:35:07.925Z,26.09
2022-08-17T15:37:36.482Z,26.09
2022-08-17T15:40:05.469Z,26.05
2022-08-17T15:42:32.491Z,25.99
2022-08-17T15:45:00.165Z,25.96
2022-08-17T15:47:26.971Z,25.96
2022-08-17T15:49:59.409Z,25.98
2022-08-17T15:52:30.148Z,26.05
2022-08-17T15:54:59.708Z,26.06
2022-08-17T15:57:27.504Z,26.15
2022-08-17T15:59:59.198Z,26.18
2022-08-17T16:03:45.712Z,26.14
2022-08-17T16:05:24.868Z,26.15
2022-08-17T16:07:52.563Z,26.05
2022-08-17T16:10:19.786Z,26.00
2022-08-17T16:12:48.765Z,25.95
2022-08-17T16:15:16.709Z,25.83
2022-08-17T16:17:43.682Z,25.70
2022-08-17T16:20:20.512Z,25.62
2022-08-17T16:22:49.534Z,25.52
2022-08-17T16:25:21.798Z,25.45
2022-08-17T16:27:50.714Z,25.35
2022-08-17T16:30:18.120Z,25.35
2022-08-17T16:32:45.236Z,25.46
2022-08-17T16:35:16.740Z,25.57
2022-08-17T16:37:46.961Z,25.52
2022-08-17T16:40:15.856Z,25.50
2022-08-17T16:42:43.435Z,25.49
2022-08-17T16:45:20.481Z,25.45
2022-08-17T16:47:50.187Z,25.40
2022-08-17T16:50:19.770Z,25.36
2022-08-17T16:52:50.499Z,25.27
2022-08-17T16:55:21.477Z,25.24
2022-08-17T16:57:50.230Z,25.17
2022-08-17T17:00:19.487Z,25.10
2022-08-17T17:02:49.641Z,24.98
2022-08-17T17:05:25.662Z,24.97
2022-08-17T17:08:12.813Z,24.84
2022-08-17T17:10:47.567Z,24.80
2022-08-17T17:13:26.500Z,24.72
2022-08-17T17:16:05.667Z,24.54
2022-08-17T17:18:40.694Z,24.42
2022-08-17T17:21:13.573Z,24.37
2022-08-17T17:24:00.291Z,24.36
2022-08-17T17:26:46.880Z,24.28
2022-08-17T17:29:18.535Z,24.11
2022-08-17T17:31:56.461Z,24.13
2022-08-17T17:34:26.656Z,24.19
2022-08-17T17:36:58.437Z,24.24
2022-08-17T17:39:55.901Z,24.21
2022-08-17T17:42:28.815Z,24.17
2022-08-17T17:45:03.737Z,24.14
2022-08-17T17:47:31.423Z,24.11
2022-08-17T17:50:00.825Z,24.10
2022-08-17T17:52:46.398Z,24.12
2022-08-17T17:55:33.419Z,24.18
2022-08-17T17:58:09.756Z,24.09
2022-08-17T18:00:43.938Z,24.01
2022-08-17T18:03:44.103Z,23.92
2022-08-17T18:06:28.653Z,23.91
2022-08-17T18:09:28.493Z,23.94
2022-08-17T18:12:19.902Z,23.90
2022-08-17T18:14:49.756Z,23.80
2022-08-17T18:17:18.302Z,23.76
2022-08-17T18:19:45.361Z,23.77
2022-08-17T18:22:21.911Z,23.76
2022-08-17T18:24:56.556Z,23.78
2022-08-17T18:27:25.884Z,23.80
2022-08-17T18:29:55.630Z,23.69
2022-08-17T18:32:28.622Z,23.65
2022-08-17T18:35:09.210Z,23.62
2022-08-17T18:37:35.911Z,23.64
2022-08-17T18:40:33.696Z,23.55
2022-08-17T18:43:22.972Z,23.58
2022-08-17T18:45:52.983Z,23.55
2022-08-17T18:48:36.227Z,23.57
2022-08-17T18:51:39.823Z,23.51
2022-08-17T18:54:17.505Z,23.47
2022-08-17T18:56:51.473Z,23.39
2022-08-17T18:59:40.449Z,23.37
2022-08-17T19:02:44.638Z,23.36
2022-08-17T19:05:33.808Z,23.40
2022-08-17T19:08:21.386Z,23.44
2022-08-17T19:11:10.879Z,23.42
2022-08-17T19:13:43.930Z,23.44
2022-08-17T19:16:14.935Z,23.41
2022-08-17T19:19:14.677Z,23.39
2022-08-17T19:21:57.496Z,23.37
2022-08-17T19:24:27.134Z,23.32
2022-08-17T19:27:06.310Z,23.32
2022-08-17T19:29:42.583Z,23.26
2022-08-17T19:32:11.063Z,23.22
2022-08-17T19:34:39.177Z,23.13
2022-08-17T19:37:20.853Z,23.09
2022-08-17T19:40:07.121Z,23.08
2022-08-17T19:42:52.919Z,23.06
2022-08-17T19:45:34.423Z,22.98
2022-08-17T19:48:19.516Z,22.90
2022-08-17T19:51:07.538Z,22.86
2022-08-17T19:54:03.789Z,22.83
2022-08-17T19:57:01.727Z,22.81
2022-08-17T20:00:13.429Z,22.76
2022-08-17T20:02:55.547Z,22.76
2022-08-17T20:06:09.161Z,22.70
2022-08-17T20:08:38.727Z,22.68
2022-08-17T20:11:15.234Z,22.62
2022-08-17T20:13:46.411Z,22.59
2022-08-17T20:16:13.168Z,22.54
2022-08-17T20:18:54.885Z,22.49
2022-08-17T20:21:29.186Z,22.46
2022-08-17T20:24:05.892Z,22.45
2022-08-17T20:26:55.213Z,22.45
2022-08-17T20:29:40.093Z,22.40
2022-08-17T20:32:21.632Z,22.38
2022-08-17T20:34:48.490Z,22.30
2022-08-17T20:37:15.066Z,22.33
2022-08-17T20:40:04.929Z,22.35
2022-08-17T20:42:33.942Z,22.31
2022-08-17T20:45:22.243Z,22.34
2022-08-17T20:48:18.606Z,22.38
2022-08-17T20:50:44.330Z,22.38
2022-08-17T20:53:15.016Z,22.33
2022-08-17T20:55:52.312Z,22.25
2022-08-17T20:58:21.295Z,22.18
2022-08-17T21:00:57.138Z,22.08
2022-08-17T21:03:23.964Z,22.05
2022-08-17T21:06:15.346Z,22.04
2022-08-17T21:08:53.286Z,22.02
2022-08-17T21:11:57.032Z,21.96
2022-08-17T21:14:31.821Z,22.00
2022-08-17T21:17:07.648Z,22.05
2022-08-17T21:20:07.656Z,22.01
2022-08-17T21:22:36.181Z,21.99
2022-08-17T21:25:34.259Z,21.94
2022-08-17T21:28:11.454Z,21.89
2022-08-17T21:30:39.771Z,21.85
2022-08-17T21:33:21.307Z,21.82
2022-08-17T21:35:52.450Z,21.81
2022-08-17T21:38:23.365Z,21.77
2022-08-17T21:40:54.149Z,21.70
2022-08-17T21:43:32.579Z,21.69
2022-08-17T21:46:10.650Z,21.70
2022-08-17T21:48:44.822Z,21.66
2022-08-17T21:51:19.750Z,21.59
2022-08-17T21:53:59.700Z,21.56
2022-08-17T21:56:37.649Z,21.52
2022-08-17T21:59:30.115Z,21.48
2022-08-17T22:02:03.308Z,21.45
2022-08-17T22:04:31.895Z,21.39
2022-08-17T22:07:01.468Z,21.34
2022-08-17T22:09:32.456Z,21.36
2022-08-17T22:12:01.911Z,21.40
2022-08-17T22:14:53.394Z,21.39
2022-08-17T22:17:37.066Z,21.37
2022-08-17T22:20:14.566Z,21.32
2022-08-17T22:23:08.977Z,21.27
2022-08-17T22:25:56.368Z,21.29
2022-08-17T22:28:43.210Z,21.25
2022-08-17T22:31:14.449Z,21.21
2022-08-17T22:33:50.703Z,21.09
2022-08-17T22:36:29.229Z,21.10
2022-08-17T22:39:22.399Z,21.06
2022-08-17T22:41:55.912Z,21.04
2022-08-17T22:44:48.083Z,21.02
2022-08-17T22:47:14.982Z,20.95
2022-08-17T22:49:53.546Z,20.93
2022-08-17T22:52:34.235Z,20.86
2022-08-17T22:55:24.925Z,20.81
2022-08-17T22:58:10.820Z,20.70
2022-08-17T23:00:43.386Z,20.66
2022-08-17T23:03:28.222Z,20.62
2022-08-17T23:06:08.300Z,20.63
2022-08-17T23:09:08.711Z,20.66
2022-08-17T23:11:48.941Z,20.76
2022-08-17T23:14:18.811Z,20.78
2022-08-17T23:16:46.226Z,20.79
2022-08-17T23:19:15.565Z,20.81
2022-08-17T23:21:45.186Z,20.79
2022-08-17T23:24:16.866Z,20.73
2022-08-17T23:26:43.489Z,20.71
2022-08-17T23:29:10.147Z,20.75
2022-08-17T23:31:38.758Z,20.70
2022-08-17T23:34:11.667Z,20.59
2022-08-17T23:36:38.881Z,20.64
2022-08-17T23:39:06.685Z,20.67
2022-08-17T23:41:39.053Z,20.66
2022-08-17T23:44:07.032Z,20.66
2022-08-17T23:46:34.768Z,20.68
2022-08-17T23:49:01.537Z,20.62
2022-08-17T23:51:38.392Z,20.57
2022-08-17T23:54:16.075Z,20.55
2022-08-17T23:56:46.725Z,20.52
2022-08-17T23:59:15.110Z,20.51
